sensor_id;sensor_type;location;lat;lon;timestamp;P1;durP1;ratioP1;P2;durP2;ratioP2
37288;SDS011;23174;49.462;11.000;2024-01-16T00:01:46;2.58;;;2.38;;
37288;SDS011;23174;49.462;11.000;2024-01-16T00:03:47;3.42;;;2.42;;
37288;SDS011;23174;49.462;11.000;2024-01-16T00:05:47;6.07;;;3.00;;
37288;SDS011;23174;49.462;11.000;2024-01-16T00:07:48;4.63;;;3.10;;
37288;SDS011;23174;49.462;11.000;2024-01-16T00:09:49;3.95;;;2.72;;
37288;SDS011;23174;49.462;11.000;2024-01-16T00:11:52;3.50;;;2.58;;
37288;SDS011;23174;49.462;11.000;2024-01-16T00:13:53;3.25;;;2.60;;
37288;SDS011;23174;49.462;11.000;2024-01-16T00:15:53;4.15;;;2.90;;
37288;SDS011;23174;49.462;11.000;2024-01-16T00:17:54;4.55;;;2.90;;
37288;SDS011;23174;49.462;11.000;2024-01-16T00:19:54;2.95;;;2.22;;
37288;SDS011;23174;49.462;11.000;2024-01-16T00:21:55;4.28;;;2.75;;
37288;SDS011;23174;49.462;11.000;2024-01-16T00:23:55;3.53;;;2.15;;
37288;SDS011;23174;49.462;11.000;2024-01-16T00:25:56;3.90;;;2.40;;
37288;SDS011;23174;49.462;11.000;2024-01-16T00:27:56;3.95;;;2.75;;
37288;SDS011;23174;49.462;11.000;2024-01-16T00:29:57;4.50;;;2.63;;
37288;SDS011;23174;49.462;11.000;2024-01-16T00:31:57;5.13;;;3.05;;
37288;SDS011;23174;49.462;11.000;2024-01-16T00:33:58;3.78;;;2.47;;
37288;SDS011;23174;49.462;11.000;2024-01-16T00:35:58;2.80;;;2.60;;
37288;SDS011;23174;49.462;11.000;2024-01-16T00:37:59;4.00;;;2.50;;
37288;SDS011;23174;49.462;11.000;2024-01-16T00:40:00;3.80;;;2.47;;
37288;SDS011;23174;49.462;11.000;2024-01-16T00:42:01;3.17;;;2.33;;
37288;SDS011;23174;49.462;11.000;2024-01-16T00:44:02;4.32;;;2.88;;
37288;SDS011;23174;49.462;11.000;2024-01-16T00:46:03;6.30;;;2.67;;
37288;SDS011;23174;49.462;11.000;2024-01-16T00:48:03;3.90;;;2.78;;
37288;SDS011;23174;49.462;11.000;2024-01-16T00:50:05;2.95;;;2.65;;
37288;SDS011;23174;49.462;11.000;2024-01-16T00:52:06;4.13;;;2.53;;
37288;SDS011;23174;49.462;11.000;2024-01-16T00:54:07;3.17;;;2.88;;
37288;SDS011;23174;49.462;11.000;2024-01-16T00:56:08;3.65;;;2.60;;
37288;SDS011;23174;49.462;11.000;2024-01-16T00:58:08;3.45;;;3.15;;
37288;SDS011;23174;49.462;11.000;2024-01-16T01:00:09;3.22;;;2.63;;
37288;SDS011;23174;49.462;11.000;2024-01-16T01:02:11;5.07;;;2.92;;
37288;SDS011;23174;49.462;11.000;2024-01-16T01:04:12;4.95;;;2.95;;
37288;SDS011;23174;49.462;11.000;2024-01-16T01:06:12;3.25;;;2.63;;
37288;SDS011;23174;49.462;11.000;2024-01-16T01:08:13;3.97;;;3.10;;
37288;SDS011;23174;49.462;11.000;2024-01-16T01:10:14;3.67;;;2.95;;
37288;SDS011;23174;49.462;11.000;2024-01-16T01:12:14;3.13;;;2.50;;
37288;SDS011;23174;49.462;11.000;2024-01-16T01:14:15;3.83;;;2.85;;
37288;SDS011;23174;49.462;11.000;2024-01-16T01:16:15;5.10;;;3.00;;
37288;SDS011;23174;49.462;11.000;2024-01-16T01:18:16;4.43;;;2.63;;
37288;SDS011;23174;49.462;11.000;2024-01-16T01:20:17;5.10;;;2.90;;
37288;SDS011;23174;49.462;11.000;2024-01-16T01:22:18;5.00;;;2.78;;
37288;SDS011;23174;49.462;11.000;2024-01-16T01:24:19;3.92;;;2.95;;
37288;SDS011;23174;49.462;11.000;2024-01-16T01:26:19;4.50;;;3.45;;
37288;SDS011;23174;49.462;11.000;2024-01-16T01:28:23;3.10;;;2.80;;
37288;SDS011;23174;49.462;11.000;2024-01-16T01:30:23;5.55;;;3.33;;
37288;SDS011;23174;49.462;11.000;2024-01-16T01:32:24;3.15;;;2.67;;
37288;SDS011;23174;49.462;11.000;2024-01-16T01:34:24;4.15;;;3.00;;
37288;SDS011;23174;49.462;11.000;2024-01-16T01:36:25;5.05;;;2.83;;
37288;SDS011;23174;49.462;11.000;2024-01-16T01:38:25;3.92;;;2.67;;
37288;SDS011;23174;49.462;11.000;2024-01-16T01:40:26;3.80;;;3.08;;
37288;SDS011;23174;49.462;11.000;2024-01-16T01:42:26;3.50;;;2.83;;
37288;SDS011;23174;49.462;11.000;2024-01-16T01:44:27;4.93;;;3.00;;
37288;SDS011;23174;49.462;11.000;2024-01-16T01:46:27;4.57;;;2.83;;
37288;SDS011;23174;49.462;11.000;2024-01-16T01:48:29;3.45;;;3.15;;
37288;SDS011;23174;49.462;11.000;2024-01-16T01:50:31;3.75;;;3.42;;
37288;SDS011;23174;49.462;11.000;2024-01-16T01:52:32;3.80;;;3.38;;
37288;SDS011;23174;49.462;11.000;2024-01-16T01:54:33;8.00;;;3.28;;
37288;SDS011;23174;49.462;11.000;2024-01-16T01:56:36;3.28;;;2.97;;
37288;SDS011;23174;49.462;11.000;2024-01-16T01:58:36;4.50;;;3.20;;
37288;SDS011;23174;49.462;11.000;2024-01-16T02:00:38;3.45;;;2.97;;
37288;SDS011;23174;49.462;11.000;2024-01-16T02:02:39;3.72;;;3.42;;
37288;SDS011;23174;49.462;11.000;2024-01-16T02:04:41;2.92;;;2.72;;
37288;SDS011;23174;49.462;11.000;2024-01-16T02:06:43;3.05;;;2.75;;
37288;SDS011;23174;49.462;11.000;2024-01-16T02:08:44;5.60;;;3.30;;
37288;SDS011;23174;49.462;11.000;2024-01-16T02:10:45;5.47;;;2.88;;
37288;SDS011;23174;49.462;11.000;2024-01-16T02:12:49;3.67;;;3.17;;
37288;SDS011;23174;49.462;11.000;2024-01-16T02:14:49;4.82;;;2.85;;
37288;SDS011;23174;49.462;11.000;2024-01-16T02:16:50;4.10;;;3.35;;
37288;SDS011;23174;49.462;11.000;2024-01-16T02:18:51;4.60;;;3.35;;
37288;SDS011;23174;49.462;11.000;2024-01-16T02:20:52;6.05;;;3.40;;
37288;SDS011;23174;49.462;11.000;2024-01-16T02:22:55;5.40;;;3.20;;
37288;SDS011;23174;49.462;11.000;2024-01-16T02:24:59;2.97;;;2.70;;
37288;SDS011;23174;49.462;11.000;2024-01-16T02:26:59;3.90;;;3.35;;
37288;SDS011;23174;49.462;11.000;2024-01-16T02:29:00;5.60;;;3.30;;
37288;SDS011;23174;49.462;11.000;2024-01-16T02:31:02;4.55;;;2.88;;
37288;SDS011;23174;49.462;11.000;2024-01-16T02:33:03;3.50;;;2.83;;
37288;SDS011;23174;49.462;11.000;2024-01-16T02:35:03;5.25;;;3.78;;
37288;SDS011;23174;49.462;11.000;2024-01-16T02:37:05;4.05;;;2.83;;
37288;SDS011;23174;49.462;11.000;2024-01-16T02:39:05;3.90;;;3.30;;
37288;SDS011;23174;49.462;11.000;2024-01-16T02:41:06;3.72;;;3.08;;
37288;SDS011;23174;49.462;11.000;2024-01-16T02:43:07;3.50;;;3.20;;
37288;SDS011;23174;49.462;11.000;2024-01-16T02:45:08;3.13;;;2.83;;
37288;SDS011;23174;49.462;11.000;2024-01-16T02:47:08;4.40;;;3.67;;
37288;SDS011;23174;49.462;11.000;2024-01-16T02:49:09;3.22;;;2.92;;
37288;SDS011;23174;49.462;11.000;2024-01-16T02:51:10;5.53;;;3.65;;
37288;SDS011;23174;49.462;11.000;2024-01-16T02:53:11;4.05;;;2.97;;
37288;SDS011;23174;49.462;11.000;2024-01-16T02:55:11;3.55;;;3.00;;
37288;SDS011;23174;49.462;11.000;2024-01-16T02:57:12;3.13;;;2.83;;
37288;SDS011;23174;49.462;11.000;2024-01-16T02:59:12;6.05;;;3.35;;
37288;SDS011;23174;49.462;11.000;2024-01-16T03:01:13;3.30;;;3.00;;
37288;SDS011;23174;49.462;11.000;2024-01-16T03:03:14;3.42;;;3.03;;
37288;SDS011;23174;49.462;11.000;2024-01-16T03:05:15;6.22;;;3.63;;
37288;SDS011;23174;49.462;11.000;2024-01-16T03:07:16;4.03;;;3.10;;
37288;SDS011;23174;49.462;11.000;2024-01-16T03:09:16;4.20;;;3.35;;
37288;SDS011;23174;49.462;11.000;2024-01-16T03:11:17;3.50;;;3.20;;
37288;SDS011;23174;49.462;11.000;2024-01-16T03:13:17;3.72;;;3.33;;
37288;SDS011;23174;49.462;11.000;2024-01-16T03:15:18;4.10;;;3.20;;
37288;SDS011;23174;49.462;11.000;2024-01-16T03:17:18;3.97;;;3.58;;
37288;SDS011;23174;49.462;11.000;2024-01-16T03:19:19;3.80;;;3.30;;
37288;SDS011;23174;49.462;11.000;2024-01-16T03:21:19;5.18;;;3.42;;
37288;SDS011;23174;49.462;11.000;2024-01-16T03:23:20;3.35;;;3.00;;
37288;SDS011;23174;49.462;11.000;2024-01-16T03:25:20;4.85;;;3.13;;
37288;SDS011;23174;49.462;11.000;2024-01-16T03:27:21;3.33;;;2.85;;
37288;SDS011;23174;49.462;11.000;2024-01-16T03:29:21;4.28;;;3.40;;
37288;SDS011;23174;49.462;11.000;2024-01-16T03:31:22;3.95;;;3.50;;
37288;SDS011;23174;49.462;11.000;2024-01-16T03:33:23;5.05;;;3.35;;
37288;SDS011;23174;49.462;11.000;2024-01-16T03:35:23;4.97;;;3.60;;
37288;SDS011;23174;49.462;11.000;2024-01-16T03:37:24;3.63;;;3.03;;
37288;SDS011;23174;49.462;11.000;2024-01-16T03:39:24;5.68;;;3.22;;
37288;SDS011;23174;49.462;11.000;2024-01-16T03:41:25;3.13;;;2.92;;
37288;SDS011;23174;49.462;11.000;2024-01-16T03:43:25;4.40;;;3.47;;
37288;SDS011;23174;49.462;11.000;2024-01-16T03:45:26;3.65;;;3.35;;
37288;SDS011;23174;49.462;11.000;2024-01-16T03:47:26;4.38;;;3.20;;
37288;SDS011;23174;49.462;11.000;2024-01-16T03:49:26;3.88;;;3.58;;
37288;SDS011;23174;49.462;11.000;2024-01-16T03:51:27;3.55;;;3.17;;
37288;SDS011;23174;49.462;11.000;2024-01-16T03:53:28;4.68;;;3.42;;
37288;SDS011;23174;49.462;11.000;2024-01-16T03:55:28;3.72;;;3.10;;
37288;SDS011;23174;49.462;11.000;2024-01-16T03:57:28;5.50;;;3.80;;
37288;SDS011;23174;49.462;11.000;2024-01-16T03:59:29;5.65;;;3.42;;
37288;SDS011;23174;49.462;11.000;2024-01-16T04:01:30;4.75;;;3.97;;
37288;SDS011;23174;49.462;11.000;2024-01-16T04:03:31;4.72;;;3.47;;
37288;SDS011;23174;49.462;11.000;2024-01-16T04:05:32;4.65;;;3.50;;
37288;SDS011;23174;49.462;11.000;2024-01-16T04:07:33;3.67;;;3.38;;
37288;SDS011;23174;49.462;11.000;2024-01-16T04:09:34;5.35;;;3.50;;
37288;SDS011;23174;49.462;11.000;2024-01-16T04:11:35;4.53;;;3.40;;
37288;SDS011;23174;49.462;11.000;2024-01-16T04:13:36;4.00;;;3.55;;
37288;SDS011;23174;49.462;11.000;2024-01-16T04:15:39;5.80;;;3.80;;
37288;SDS011;23174;49.462;11.000;2024-01-16T04:17:40;3.58;;;3.30;;
37288;SDS011;23174;49.462;11.000;2024-01-16T04:19:40;5.90;;;3.72;;
37288;SDS011;23174;49.462;11.000;2024-01-16T04:21:41;5.45;;;3.97;;
37288;SDS011;23174;49.462;11.000;2024-01-16T04:23:41;4.60;;;3.63;;
37288;SDS011;23174;49.462;11.000;2024-01-16T04:25:42;4.28;;;3.60;;
37288;SDS011;23174;49.462;11.000;2024-01-16T04:27:42;3.90;;;3.50;;
37288;SDS011;23174;49.462;11.000;2024-01-16T04:29:43;4.90;;;3.50;;
37288;SDS011;23174;49.462;11.000;2024-01-16T04:31:43;4.22;;;3.80;;
37288;SDS011;23174;49.462;11.000;2024-01-16T04:33:44;5.47;;;3.80;;
37288;SDS011;23174;49.462;11.000;2024-01-16T04:35:44;4.80;;;3.42;;
37288;SDS011;23174;49.462;11.000;2024-01-16T04:37:45;4.68;;;3.55;;
37288;SDS011;23174;49.462;11.000;2024-01-16T04:39:45;3.45;;;3.15;;
37288;SDS011;23174;49.462;11.000;2024-01-16T04:41:46;5.90;;;3.67;;
37288;SDS011;23174;49.462;11.000;2024-01-16T04:43:46;4.65;;;3.50;;
37288;SDS011;23174;49.462;11.000;2024-01-16T04:45:47;4.68;;;3.67;;
37288;SDS011;23174;49.462;11.000;2024-01-16T04:47:47;3.75;;;3.38;;
37288;SDS011;23174;49.462;11.000;2024-01-16T04:49:48;4.35;;;3.50;;
37288;SDS011;23174;49.462;11.000;2024-01-16T04:51:48;4.78;;;3.63;;
37288;SDS011;23174;49.462;11.000;2024-01-16T04:53:49;7.30;;;3.58;;
37288;SDS011;23174;49.462;11.000;2024-01-16T04:55:49;4.20;;;3.58;;
37288;SDS011;23174;49.462;11.000;2024-01-16T04:57:49;4.93;;;3.72;;
37288;SDS011;23174;49.462;11.000;2024-01-16T04:59:50;5.70;;;3.90;;
37288;SDS011;23174;49.462;11.000;2024-01-16T05:01:51;7.63;;;4.28;;
37288;SDS011;23174;49.462;11.000;2024-01-16T05:03:51;4.13;;;3.72;;
37288;SDS011;23174;49.462;11.000;2024-01-16T05:05:52;4.45;;;3.92;;
37288;SDS011;23174;49.462;11.000;2024-01-16T05:07:53;3.85;;;3.25;;
37288;SDS011;23174;49.462;11.000;2024-01-16T05:09:53;5.15;;;3.38;;
37288;SDS011;23174;49.462;11.000;2024-01-16T05:11:55;4.10;;;3.70;;
37288;SDS011;23174;49.462;11.000;2024-01-16T05:13:55;4.15;;;3.78;;
37288;SDS011;23174;49.462;11.000;2024-01-16T05:15:59;5.85;;;4.70;;
37288;SDS011;23174;49.462;11.000;2024-01-16T05:17:59;5.50;;;3.60;;
37288;SDS011;23174;49.462;11.000;2024-01-16T05:20:01;6.05;;;3.78;;
37288;SDS011;23174;49.462;11.000;2024-01-16T05:22:04;4.32;;;3.92;;
37288;SDS011;23174;49.462;11.000;2024-01-16T05:24:04;6.35;;;4.30;;
37288;SDS011;23174;49.462;11.000;2024-01-16T05:26:05;6.03;;;3.80;;
37288;SDS011;23174;49.462;11.000;2024-01-16T05:28:05;3.67;;;3.38;;
37288;SDS011;23174;49.462;11.000;2024-01-16T05:30:07;6.75;;;3.78;;
37288;SDS011;23174;49.462;11.000;2024-01-16T05:32:08;4.45;;;3.47;;
37288;SDS011;23174;49.462;11.000;2024-01-16T05:34:08;5.93;;;4.00;;
37288;SDS011;23174;49.462;11.000;2024-01-16T05:36:09;4.03;;;3.63;;
37288;SDS011;23174;49.462;11.000;2024-01-16T05:38:10;4.28;;;3.50;;
37288;SDS011;23174;49.462;11.000;2024-01-16T05:40:12;4.45;;;3.80;;
37288;SDS011;23174;49.462;11.000;2024-01-16T05:42:12;4.07;;;3.67;;
37288;SDS011;23174;49.462;11.000;2024-01-16T05:44:13;4.45;;;3.97;;
37288;SDS011;23174;49.462;11.000;2024-01-16T05:46:13;6.65;;;3.75;;
37288;SDS011;23174;49.462;11.000;2024-01-16T05:48:14;5.13;;;4.35;;
37288;SDS011;23174;49.462;11.000;2024-01-16T05:50:14;4.30;;;3.85;;
37288;SDS011;23174;49.462;11.000;2024-01-16T05:52:18;7.38;;;4.10;;
37288;SDS011;23174;49.462;11.000;2024-01-16T05:54:18;4.70;;;4.20;;
37288;SDS011;23174;49.462;11.000;2024-01-16T05:56:19;5.05;;;4.03;;
37288;SDS011;23174;49.462;11.000;2024-01-16T05:58:20;4.25;;;3.80;;
37288;SDS011;23174;49.462;11.000;2024-01-16T06:00:20;4.60;;;3.97;;
37288;SDS011;23174;49.462;11.000;2024-01-16T06:02:23;4.88;;;4.38;;
37288;SDS011;23174;49.462;11.000;2024-01-16T06:04:24;5.82;;;4.20;;
37288;SDS011;23174;49.462;11.000;2024-01-16T06:06:25;4.95;;;3.85;;
37288;SDS011;23174;49.462;11.000;2024-01-16T06:08:26;5.95;;;4.13;;
37288;SDS011;23174;49.462;11.000;2024-01-16T06:10:26;4.22;;;3.75;;
37288;SDS011;23174;49.462;11.000;2024-01-16T06:12:26;4.75;;;3.85;;
37288;SDS011;23174;49.462;11.000;2024-01-16T06:14:27;4.68;;;3.83;;
37288;SDS011;23174;49.462;11.000;2024-01-16T06:16:27;5.10;;;4.65;;
37288;SDS011;23174;49.462;11.000;2024-01-16T06:18:29;5.90;;;4.63;;
37288;SDS011;23174;49.462;11.000;2024-01-16T06:20:29;4.65;;;3.92;;
37288;SDS011;23174;49.462;11.000;2024-01-16T06:22:30;4.90;;;4.05;;
37288;SDS011;23174;49.462;11.000;2024-01-16T06:24:31;8.57;;;4.80;;
37288;SDS011;23174;49.462;11.000;2024-01-16T06:26:36;5.15;;;4.40;;
37288;SDS011;23174;49.462;11.000;2024-01-16T06:28:37;6.38;;;4.20;;
37288;SDS011;23174;49.462;11.000;2024-01-16T06:30:37;4.75;;;4.30;;
37288;SDS011;23174;49.462;11.000;2024-01-16T06:32:38;4.93;;;4.30;;
37288;SDS011;23174;49.462;11.000;2024-01-16T06:34:39;4.78;;;4.28;;
37288;SDS011;23174;49.462;11.000;2024-01-16T06:36:39;5.43;;;4.60;;
37288;SDS011;23174;49.462;11.000;2024-01-16T06:38:40;5.60;;;4.28;;
37288;SDS011;23174;49.462;11.000;2024-01-16T06:40:40;6.18;;;4.68;;
37288;SDS011;23174;49.462;11.000;2024-01-16T06:42:41;5.40;;;4.53;;
37288;SDS011;23174;49.462;11.000;2024-01-16T06:44:41;6.43;;;4.70;;
37288;SDS011;23174;49.462;11.000;2024-01-16T06:46:42;5.25;;;4.75;;
37288;SDS011;23174;49.462;11.000;2024-01-16T06:48:42;6.53;;;4.20;;
37288;SDS011;23174;49.462;11.000;2024-01-16T06:50:43;4.93;;;4.30;;
37288;SDS011;23174;49.462;11.000;2024-01-16T06:52:43;5.28;;;4.60;;
37288;SDS011;23174;49.462;11.000;2024-01-16T06:54:44;5.78;;;4.22;;
37288;SDS011;23174;49.462;11.000;2024-01-16T06:56:44;8.00;;;4.68;;
37288;SDS011;23174;49.462;11.000;2024-01-16T06:58:46;5.18;;;4.43;;
37288;SDS011;23174;49.462;11.000;2024-01-16T07:00:46;4.95;;;4.32;;
37288;SDS011;23174;49.462;11.000;2024-01-16T07:02:47;4.78;;;4.38;;
37288;SDS011;23174;49.462;11.000;2024-01-16T07:04:48;5.45;;;4.75;;
37288;SDS011;23174;49.462;11.000;2024-01-16T07:06:48;7.22;;;5.70;;
37288;SDS011;23174;49.462;11.000;2024-01-16T07:08:49;6.47;;;4.72;;
37288;SDS011;23174;49.462;11.000;2024-01-16T07:10:50;5.53;;;4.47;;
37288;SDS011;23174;49.462;11.000;2024-01-16T07:12:50;5.05;;;4.55;;
37288;SDS011;23174;49.462;11.000;2024-01-16T07:14:51;5.68;;;4.45;;
37288;SDS011;23174;49.462;11.000;2024-01-16T07:16:52;7.07;;;5.28;;
37288;SDS011;23174;49.462;11.000;2024-01-16T07:18:52;8.45;;;4.45;;
37288;SDS011;23174;49.462;11.000;2024-01-16T07:20:55;5.15;;;4.55;;
37288;SDS011;23174;49.462;11.000;2024-01-16T07:22:55;5.45;;;4.53;;
37288;SDS011;23174;49.462;11.000;2024-01-16T07:24:56;5.45;;;3.78;;
37288;SDS011;23174;49.462;11.000;2024-01-16T07:26:56;6.55;;;4.60;;
37288;SDS011;23174;49.462;11.000;2024-01-16T07:28:57;7.10;;;6.20;;
37288;SDS011;23174;49.462;11.000;2024-01-16T07:30:57;7.97;;;6.55;;
37288;SDS011;23174;49.462;11.000;2024-01-16T07:32:58;6.25;;;5.55;;
37288;SDS011;23174;49.462;11.000;2024-01-16T07:34:59;6.38;;;5.43;;
37288;SDS011;23174;49.462;11.000;2024-01-16T07:36:59;9.93;;;5.72;;
37288;SDS011;23174;49.462;11.000;2024-01-16T07:39:00;9.70;;;6.53;;
37288;SDS011;23174;49.462;11.000;2024-01-16T07:41:00;6.55;;;5.00;;
37288;SDS011;23174;49.462;11.000;2024-01-16T07:43:01;7.03;;;5.18;;
37288;SDS011;23174;49.462;11.000;2024-01-16T07:45:02;5.82;;;4.82;;
37288;SDS011;23174;49.462;11.000;2024-01-16T07:47:04;8.02;;;5.03;;
37288;SDS011;23174;49.462;11.000;2024-01-16T07:49:05;6.95;;;5.32;;
37288;SDS011;23174;49.462;11.000;2024-01-16T07:51:05;6.50;;;5.43;;
37288;SDS011;23174;49.462;11.000;2024-01-16T07:53:06;5.32;;;4.78;;
37288;SDS011;23174;49.462;11.000;2024-01-16T07:55:06;5.82;;;5.13;;
37288;SDS011;23174;49.462;11.000;2024-01-16T07:57:07;6.00;;;5.50;;
37288;SDS011;23174;49.462;11.000;2024-01-16T07:59:07;7.78;;;5.63;;
37288;SDS011;23174;49.462;11.000;2024-01-16T08:01:08;7.93;;;6.57;;
37288;SDS011;23174;49.462;11.000;2024-01-16T08:03:09;6.72;;;5.50;;
37288;SDS011;23174;49.462;11.000;2024-01-16T08:05:12;6.30;;;5.22;;
37288;SDS011;23174;49.462;11.000;2024-01-16T08:07:13;5.63;;;5.13;;
37288;SDS011;23174;49.462;11.000;2024-01-16T08:09:13;7.40;;;5.32;;
37288;SDS011;23174;49.462;11.000;2024-01-16T08:11:14;7.10;;;5.13;;
37288;SDS011;23174;49.462;11.000;2024-01-16T08:13:15;5.63;;;4.72;;
37288;SDS011;23174;49.462;11.000;2024-01-16T08:15:15;5.88;;;5.15;;
37288;SDS011;23174;49.462;11.000;2024-01-16T08:17:16;4.85;;;4.45;;
37288;SDS011;23174;49.462;11.000;2024-01-16T08:19:17;5.13;;;4.60;;
37288;SDS011;23174;49.462;11.000;2024-01-16T08:21:18;7.40;;;5.72;;
37288;SDS011;23174;49.462;11.000;2024-01-16T08:23:19;8.70;;;5.95;;
37288;SDS011;23174;49.462;11.000;2024-01-16T08:25:21;6.90;;;5.45;;
37288;SDS011;23174;49.462;11.000;2024-01-16T08:27:21;7.60;;;5.47;;
37288;SDS011;23174;49.462;11.000;2024-01-16T08:29:22;7.30;;;4.88;;
37288;SDS011;23174;49.462;11.000;2024-01-16T08:31:22;6.00;;;5.40;;
37288;SDS011;23174;49.462;11.000;2024-01-16T08:33:23;7.78;;;5.93;;
37288;SDS011;23174;49.462;11.000;2024-01-16T08:35:23;8.13;;;5.40;;
37288;SDS011;23174;49.462;11.000;2024-01-16T08:37:24;8.65;;;5.80;;
37288;SDS011;23174;49.462;11.000;2024-01-16T08:39:25;6.47;;;5.28;;
37288;SDS011;23174;49.462;11.000;2024-01-16T08:41:27;5.50;;;4.88;;
37288;SDS011;23174;49.462;11.000;2024-01-16T08:43:28;6.57;;;5.47;;
37288;SDS011;23174;49.462;11.000;2024-01-16T08:45:28;5.25;;;4.75;;
37288;SDS011;23174;49.462;11.000;2024-01-16T08:47:29;7.18;;;5.00;;
37288;SDS011;23174;49.462;11.000;2024-01-16T08:49:30;6.32;;;5.00;;
37288;SDS011;23174;49.462;11.000;2024-01-16T08:51:30;6.18;;;4.93;;
37288;SDS011;23174;49.462;11.000;2024-01-16T08:53:30;5.78;;;4.45;;
37288;SDS011;23174;49.462;11.000;2024-01-16T08:55:31;5.07;;;4.57;;
37288;SDS011;23174;49.462;11.000;2024-01-16T08:57:32;9.05;;;4.45;;
37288;SDS011;23174;49.462;11.000;2024-01-16T08:59:32;6.70;;;4.88;;
37288;SDS011;23174;49.462;11.000;2024-01-16T09:01:32;6.32;;;4.43;;
37288;SDS011;23174;49.462;11.000;2024-01-16T09:03:33;6.63;;;5.47;;
37288;SDS011;23174;49.462;11.000;2024-01-16T09:05:34;7.90;;;5.43;;
37288;SDS011;23174;49.462;11.000;2024-01-16T09:07:38;5.47;;;4.75;;
37288;SDS011;23174;49.462;11.000;2024-01-16T09:09:39;6.30;;;4.93;;
37288;SDS011;23174;49.462;11.000;2024-01-16T09:11:41;6.30;;;4.97;;
37288;SDS011;23174;49.462;11.000;2024-01-16T09:13:42;6.55;;;4.55;;
37288;SDS011;23174;49.462;11.000;2024-01-16T09:15:43;6.90;;;4.97;;
37288;SDS011;23174;49.462;11.000;2024-01-16T09:17:44;9.23;;;4.82;;
37288;SDS011;23174;49.462;11.000;2024-01-16T09:19:44;7.22;;;4.97;;
37288;SDS011;23174;49.462;11.000;2024-01-16T09:21:45;5.97;;;5.32;;
37288;SDS011;23174;49.462;11.000;2024-01-16T09:23:45;5.90;;;4.97;;
37288;SDS011;23174;49.462;11.000;2024-01-16T09:25:46;6.72;;;5.10;;
37288;SDS011;23174;49.462;11.000;2024-01-16T09:27:46;6.47;;;5.75;;
37288;SDS011;23174;49.462;11.000;2024-01-16T09:29:47;8.63;;;5.70;;
37288;SDS011;23174;49.462;11.000;2024-01-16T09:31:47;7.40;;;5.43;;
37288;SDS011;23174;49.462;11.000;2024-01-16T09:33:48;8.02;;;4.95;;
37288;SDS011;23174;49.462;11.000;2024-01-16T09:35:48;6.10;;;4.97;;
37288;SDS011;23174;49.462;11.000;2024-01-16T09:37:49;6.15;;;5.55;;
37288;SDS011;23174;49.462;11.000;2024-01-16T09:39:50;6.38;;;4.93;;
37288;SDS011;23174;49.462;11.000;2024-01-16T09:41:53;7.40;;;5.20;;
37288;SDS011;23174;49.462;11.000;2024-01-16T09:43:55;8.07;;;5.00;;
37288;SDS011;23174;49.462;11.000;2024-01-16T09:45:56;7.20;;;5.28;;
37288;SDS011;23174;49.462;11.000;2024-01-16T09:48:01;5.00;;;4.53;;
37288;SDS011;23174;49.462;11.000;2024-01-16T09:50:03;8.48;;;4.90;;
37288;SDS011;23174;49.462;11.000;2024-01-16T09:52:03;10.05;;;7.95;;
37288;SDS011;23174;49.462;11.000;2024-01-16T09:54:04;7.97;;;7.15;;
37288;SDS011;23174;49.462;11.000;2024-01-16T09:56:11;6.25;;;5.00;;
37288;SDS011;23174;49.462;11.000;2024-01-16T09:58:15;7.20;;;4.90;;
37288;SDS011;23174;49.462;11.000;2024-01-16T10:00:20;6.80;;;4.90;;
37288;SDS011;23174;49.462;11.000;2024-01-16T10:02:21;5.43;;;4.90;;
37288;SDS011;23174;49.462;11.000;2024-01-16T10:04:23;7.55;;;4.88;;
37288;SDS011;23174;49.462;11.000;2024-01-16T10:06:24;5.28;;;4.75;;
37288;SDS011;23174;49.462;11.000;2024-01-16T10:08:27;6.65;;;4.95;;
37288;SDS011;23174;49.462;11.000;2024-01-16T10:10:28;7.70;;;4.80;;
37288;SDS011;23174;49.462;11.000;2024-01-16T10:12:29;5.40;;;4.82;;
37288;SDS011;23174;49.462;11.000;2024-01-16T10:14:30;9.55;;;5.00;;
37288;SDS011;23174;49.462;11.000;2024-01-16T10:19:03;6.60;;;4.88;;
37288;SDS011;23174;49.462;11.000;2024-01-16T10:21:05;6.32;;;4.65;;
37288;SDS011;23174;49.462;11.000;2024-01-16T10:23:27;5.43;;;4.25;;
37288;SDS011;23174;49.462;11.000;2024-01-16T10:25:29;4.97;;;4.45;;
37288;SDS011;23174;49.462;11.000;2024-01-16T10:27:30;7.32;;;4.72;;
37288;SDS011;23174;49.462;11.000;2024-01-16T10:29:31;5.35;;;4.85;;
37288;SDS011;23174;49.462;11.000;2024-01-16T10:31:32;6.63;;;5.03;;
37288;SDS011;23174;49.462;11.000;2024-01-16T10:33:32;5.75;;;5.03;;
37288;SDS011;23174;49.462;11.000;2024-01-16T10:35:33;6.18;;;4.47;;
37288;SDS011;23174;49.462;11.000;2024-01-16T10:37:48;5.45;;;4.40;;
37288;SDS011;23174;49.462;11.000;2024-01-16T10:39:52;5.00;;;4.30;;
37288;SDS011;23174;49.462;11.000;2024-01-16T10:41:59;5.18;;;4.78;;
37288;SDS011;23174;49.462;11.000;2024-01-16T10:44:03;5.55;;;4.53;;
37288;SDS011;23174;49.462;11.000;2024-01-16T10:46:07;7.25;;;4.80;;
37288;SDS011;23174;49.462;11.000;2024-01-16T10:48:08;6.60;;;4.45;;
37288;SDS011;23174;49.462;11.000;2024-01-16T10:50:09;5.25;;;4.78;;
37288;SDS011;23174;49.462;11.000;2024-01-16T10:52:09;5.32;;;4.65;;
37288;SDS011;23174;49.462;11.000;2024-01-16T10:54:13;10.63;;;5.03;;
37288;SDS011;23174;49.462;11.000;2024-01-16T10:56:17;7.07;;;5.40;;
37288;SDS011;23174;49.462;11.000;2024-01-16T10:58:22;4.72;;;4.28;;
37288;SDS011;23174;49.462;11.000;2024-01-16T11:00:25;7.80;;;4.90;;
37288;SDS011;23174;49.462;11.000;2024-01-16T11:02:28;6.20;;;4.22;;
37288;SDS011;23174;49.462;11.000;2024-01-16T11:04:36;5.55;;;4.50;;
37288;SDS011;23174;49.462;11.000;2024-01-16T11:06:38;5.80;;;4.38;;
37288;SDS011;23174;49.462;11.000;2024-01-16T11:08:41;6.82;;;4.72;;
37288;SDS011;23174;49.462;11.000;2024-01-16T11:10:42;5.55;;;4.30;;
37288;SDS011;23174;49.462;11.000;2024-01-16T11:12:43;5.63;;;4.97;;
37288;SDS011;23174;49.462;11.000;2024-01-16T11:14:46;6.07;;;4.38;;
37288;SDS011;23174;49.462;11.000;2024-01-16T11:16:51;6.22;;;4.85;;
37288;SDS011;23174;49.462;11.000;2024-01-16T11:18:55;5.65;;;4.43;;
37288;SDS011;23174;49.462;11.000;2024-01-16T11:20:56;7.40;;;4.47;;
37288;SDS011;23174;49.462;11.000;2024-01-16T11:22:58;4.78;;;4.38;;
37288;SDS011;23174;49.462;11.000;2024-01-16T11:25:09;10.05;;;5.30;;
37288;SDS011;23174;49.462;11.000;2024-01-16T11:27:23;5.50;;;4.20;;
37288;SDS011;23174;49.462;11.000;2024-01-16T11:31:27;6.22;;;4.20;;
37288;SDS011;23174;49.462;11.000;2024-01-16T11:35:32;4.53;;;4.03;;
37288;SDS011;23174;49.462;11.000;2024-01-16T11:37:42;5.20;;;4.25;;
37288;SDS011;23174;49.462;11.000;2024-01-16T11:39:43;4.78;;;4.28;;
37288;SDS011;23174;49.462;11.000;2024-01-16T11:43:54;5.47;;;3.90;;
37288;SDS011;23174;49.462;11.000;2024-01-16T11:45:54;3.95;;;3.63;;
37288;SDS011;23174;49.462;11.000;2024-01-16T11:48:11;6.60;;;4.00;;
37288;SDS011;23174;49.462;11.000;2024-01-16T11:50:13;5.72;;;4.30;;
37288;SDS011;23174;49.462;11.000;2024-01-16T11:52:40;6.93;;;3.78;;
37288;SDS011;23174;49.462;11.000;2024-01-16T11:54:42;8.50;;;4.13;;
37288;SDS011;23174;49.462;11.000;2024-01-16T11:57:25;4.78;;;3.60;;
37288;SDS011;23174;49.462;11.000;2024-01-16T11:59:42;4.00;;;3.50;;
37288;SDS011;23174;49.462;11.000;2024-01-16T12:01:59;7.30;;;3.88;;
37288;SDS011;23174;49.462;11.000;2024-01-16T12:04:03;5.38;;;3.75;;
37288;SDS011;23174;49.462;11.000;2024-01-16T12:06:07;6.93;;;4.22;;
37288;SDS011;23174;49.462;11.000;2024-01-16T12:08:09;7.20;;;4.15;;
37288;SDS011;23174;49.462;11.000;2024-01-16T12:10:09;7.43;;;4.18;;